createdAt,value
2022-11-20T00:01:56.574Z,16.23
2022-11-20T00:04:23.954Z,16.07
2022-11-20T00:06:51.420Z,16.30
2022-11-20T00:09:19.525Z,16.40
2022-11-20T00:11:48.152Z,17.00
2022-11-20T00:14:15.472Z,16.50
2022-11-20T00:16:43.201Z,15.93
2022-11-20T00:19:11.721Z,16.03
2022-11-20T00:21:39.787Z,16.10
2022-11-20T00:24:11.573Z,16.67
2022-11-20T00:26:39.538Z,15.90
2022-11-20T00:29:11.354Z,16.70
2022-11-20T00:31:38.821Z,16.53
2022-11-20T00:34:06.265Z,15.23
2022-11-20T00:36:36.458Z,16.70
2022-11-20T00:39:04.093Z,17.20
2022-11-20T00:41:32.291Z,15.33
2022-11-20T00:43:59.737Z,15.80
2022-11-20T00:46:28.727Z,17.27
2022-11-20T00:48:57.258Z,16.23
2022-11-20T00:51:26.031Z,16.20
2022-11-20T00:53:56.620Z,16.87
2022-11-20T00:56:24.174Z,17.20
2022-11-20T00:58:52.450Z,16.40
2022-11-20T01:01:22.624Z,17.93
2022-11-20T01:03:51.296Z,15.70
2022-11-20T01:06:24.504Z,17.13
2022-11-20T01:08:52.961Z,14.50
2022-11-20T01:11:23.491Z,15.47
2022-11-20T01:13:54.311Z,16.90
2022-11-20T01:16:23.203Z,17.27
2022-11-20T01:18:51.575Z,17.97
2022-11-20T01:21:20.574Z,16.90
2022-11-20T01:23:48.669Z,15.90
2022-11-20T01:26:35.053Z,16.70
2022-11-20T01:29:03.218Z,16.70
2022-11-20T01:31:32.391Z,16.90
2022-11-20T01:34:01.037Z,18.60
2022-11-20T01:36:29.769Z,17.50
2022-11-20T01:38:58.648Z,16.00
2022-11-20T01:41:45.792Z,16.10
2022-11-20T01:44:15.976Z,17.80
2022-11-20T01:46:57.616Z,16.73
2022-11-20T01:49:34.311Z,16.77
2022-11-20T01:52:04.752Z,18.40
2022-11-20T01:54:37.338Z,16.70
2022-11-20T01:57:07.227Z,15.83
2022-11-20T01:59:35.440Z,16.77
2022-11-20T02:02:04.908Z,17.40
2022-11-20T02:04:32.388Z,17.10
2022-11-20T02:07:01.891Z,17.47
2022-11-20T02:09:29.862Z,18.50
2022-11-20T02:11:57.714Z,17.77
2022-11-20T02:14:25.357Z,16.50
2022-11-20T02:16:53.270Z,17.90
2022-11-20T02:19:31.763Z,18.83
2022-11-20T02:22:17.916Z,18.50
2022-11-20T02:24:46.824Z,17.57
2022-11-20T02:27:16.269Z,19.17
2022-11-20T02:29:59.361Z,18.03
2022-11-20T02:32:27.827Z,19.33
2022-11-20T02:34:55.314Z,16.57
2022-11-20T02:37:23.221Z,17.37
2022-11-20T02:39:51.703Z,17.23
2022-11-20T02:42:21.282Z,19.00
2022-11-20T02:44:48.640Z,17.20
2022-11-20T02:47:16.227Z,18.10
2022-11-20T02:49:43.881Z,17.10
2022-11-20T02:52:11.346Z,17.27
2022-11-20T02:54:39.914Z,18.80
2022-11-20T02:57:07.427Z,17.00
2022-11-20T02:59:34.976Z,18.53
2022-11-20T03:02:02.585Z,16.97
2022-11-20T03:04:30.048Z,18.30
2022-11-20T03:07:00.103Z,17.80
2022-11-20T03:09:27.663Z,17.53
2022-11-20T03:11:55.157Z,16.80
2022-11-20T03:14:22.651Z,16.27
2022-11-20T03:16:50.177Z,16.07
2022-11-20T03:19:18.371Z,15.97
2022-11-20T03:21:45.716Z,17.57
2022-11-20T03:24:13.036Z,19.43
2022-11-20T03:26:40.685Z,16.27
2022-11-20T03:29:08.216Z,18.20
2022-11-20T03:31:36.751Z,18.30
2022-11-20T03:34:04.455Z,17.50
2022-11-20T03:36:32.017Z,16.53
2022-11-20T03:38:59.447Z,17.93
2022-11-20T03:41:28.321Z,17.00
2022-11-20T03:43:57.689Z,17.37
2022-11-20T03:46:25.350Z,17.27
2022-11-20T03:48:52.970Z,17.60
2022-11-20T03:51:24.561Z,17.67
2022-11-20T03:53:52.793Z,17.63
2022-11-20T03:56:21.173Z,18.07
2022-11-20T03:58:48.891Z,19.20
2022-11-20T04:01:17.822Z,19.10
2022-11-20T04:03:46.083Z,17.70
2022-11-20T04:06:14.726Z,19.63
2022-11-20T04:08:42.549Z,19.87
2022-11-20T04:11:10.819Z,17.87
2022-11-20T04:13:38.175Z,18.57
2022-11-20T04:16:06.214Z,18.73
2022-11-20T04:18:33.564Z,18.33
2022-11-20T04:21:00.820Z,18.87
2022-11-20T04:23:29.079Z,16.93
2022-11-20T04:26:04.053Z,18.37
2022-11-20T04:28:31.234Z,18.90
2022-11-20T04:31:09.884Z,17.57
2022-11-20T04:33:37.931Z,19.77
2022-11-20T04:36:06.600Z,17.00
2022-11-20T04:38:34.079Z,17.87
2022-11-20T04:41:02.068Z,17.73
2022-11-20T04:43:29.648Z,17.53
2022-11-20T04:45:57.554Z,17.63
2022-11-20T04:48:24.902Z,18.87
2022-11-20T04:50:53.568Z,17.27
2022-11-20T04:53:21.391Z,18.50
2022-11-20T04:55:49.865Z,16.57
2022-11-20T04:58:19.014Z,18.23
2022-11-20T05:00:46.182Z,19.67
2022-11-20T05:03:14.217Z,17.90
2022-11-20T05:05:41.388Z,18.20
2022-11-20T05:08:08.766Z,16.30
2022-11-20T05:10:36.162Z,16.40
2022-11-20T05:13:04.348Z,18.00
2022-11-20T05:15:32.668Z,17.93
2022-11-20T05:18:00.177Z,15.53
2022-11-20T05:20:27.375Z,18.27
2022-11-20T05:22:57.787Z,17.20
2022-11-20T05:25:25.006Z,17.63
2022-11-20T05:27:52.188Z,17.87
2022-11-20T05:30:20.361Z,16.17
2022-11-20T05:32:47.540Z,19.10
2022-11-20T05:35:14.848Z,16.40
2022-11-20T05:37:42.016Z,18.03
2022-11-20T05:40:09.653Z,17.40
2022-11-20T05:42:38.053Z,17.70
2022-11-20T05:45:06.818Z,19.90
2022-11-20T05:47:35.932Z,18.93
2022-11-20T05:50:04.249Z,18.50
2022-11-20T05:52:31.608Z,19.40
2022-11-20T05:54:58.839Z,19.30
2022-11-20T05:57:26.033Z,18.63
2022-11-20T05:59:53.236Z,18.90
2022-11-20T06:02:20.439Z,20.50
2022-11-20T06:04:47.984Z,20.30
2022-11-20T06:07:15.206Z,19.50
2022-11-20T06:09:43.084Z,18.90
2022-11-20T06:12:10.310Z,20.50
2022-11-20T06:14:37.887Z,21.67
2022-11-20T06:17:06.040Z,18.47
2022-11-20T06:19:33.236Z,18.40
2022-11-20T06:22:00.416Z,16.60
2022-11-20T06:24:27.633Z,19.97
2022-11-20T06:26:55.817Z,19.07
2022-11-20T06:29:23.240Z,18.00
2022-11-20T06:31:50.613Z,20.77
2022-11-20T06:34:18.887Z,18.50
2022-11-20T06:36:46.074Z,19.37
2022-11-20T06:39:13.256Z,19.07
2022-11-20T06:41:40.919Z,18.57
2022-11-20T06:44:10.379Z,20.37
2022-11-20T06:46:37.594Z,18.33
2022-11-20T06:49:04.841Z,17.17
2022-11-20T06:51:32.003Z,19.97
2022-11-20T06:53:59.259Z,19.27
2022-11-20T06:56:26.417Z,20.50
2022-11-20T06:58:54.668Z,20.27
2022-11-20T07:01:21.930Z,20.50
2022-11-20T07:03:54.205Z,18.93
2022-11-20T07:06:22.273Z,19.93
2022-11-20T07:08:51.594Z,18.30
2022-11-20T07:11:18.807Z,19.70
2022-11-20T07:13:46.604Z,19.57
2022-11-20T07:16:13.795Z,22.13
2022-11-20T07:18:43.664Z,22.13
2022-11-20T07:21:13.468Z,20.50
2022-11-20T07:23:40.634Z,19.70
2022-11-20T07:26:08.652Z,19.60
2022-11-20T07:28:36.320Z,19.80
2022-11-20T07:31:03.967Z,20.60
2022-11-20T07:33:32.063Z,22.73
2022-11-20T07:36:01.124Z,19.47
2022-11-20T07:38:28.365Z,20.47
2022-11-20T07:40:56.710Z,20.83
2022-11-20T07:43:23.933Z,20.83
2022-11-20T07:45:51.308Z,21.17
2022-11-20T07:48:18.448Z,21.33
2022-11-20T07:50:46.714Z,22.67
2022-11-20T07:53:14.778Z,20.33
2022-11-20T07:55:41.968Z,22.07
2022-11-20T07:58:10.102Z,20.17
2022-11-20T08:00:37.317Z,20.33
2022-11-20T08:03:06.066Z,21.23
2022-11-20T08:05:33.615Z,25.20
2022-11-20T08:08:00.779Z,20.13
2022-11-20T08:10:28.104Z,21.90
2022-11-20T08:13:13.971Z,18.73
2022-11-20T08:15:41.633Z,20.37
2022-11-20T08:20:59.376Z,20.77
2022-11-20T08:23:26.764Z,19.83
2022-11-20T08:25:55.972Z,26.57
2022-11-20T08:28:24.520Z,22.40
2022-11-20T08:30:51.816Z,21.57
2022-11-20T08:33:19.475Z,19.13
2022-11-20T08:35:46.751Z,20.57
2022-11-20T08:38:13.958Z,19.13
2022-11-20T08:40:41.163Z,19.50
2022-11-20T08:43:08.388Z,18.83
2022-11-20T08:45:36.663Z,19.63
2022-11-20T08:48:04.696Z,20.00
2022-11-20T08:50:35.097Z,22.77
2022-11-20T08:53:05.752Z,22.37
2022-11-20T08:55:33.243Z,21.03
2022-11-20T08:58:04.806Z,24.33
2022-11-20T09:00:33.245Z,21.30
2022-11-20T09:03:01.795Z,21.27
2022-11-20T09:05:29.126Z,18.27
2022-11-20T09:07:59.906Z,20.13
2022-11-20T09:10:27.675Z,20.00
2022-11-20T09:12:56.074Z,20.30
2022-11-20T09:15:23.761Z,22.13
2022-11-20T09:17:59.327Z,21.40
2022-11-20T09:20:27.099Z,20.90
2022-11-20T09:22:54.325Z,20.53
2022-11-20T09:25:21.815Z,22.57
2022-11-20T09:27:49.007Z,19.77
2022-11-20T09:30:16.629Z,22.03
2022-11-20T09:32:44.275Z,21.57
2022-11-20T09:35:12.759Z,21.17
2022-11-20T09:37:39.899Z,22.50
2022-11-20T09:40:07.731Z,23.07
2022-11-20T09:42:49.280Z,22.07
2022-11-20T09:45:16.426Z,21.57
2022-11-20T09:47:47.756Z,22.50
2022-11-20T09:50:30.256Z,22.13
2022-11-20T09:53:13.222Z,21.00
2022-11-20T09:55:43.132Z,23.60
2022-11-20T09:58:30.317Z,24.23
2022-11-20T10:01:00.836Z,21.40
2022-11-20T10:03:54.599Z,22.50
2022-11-20T10:06:25.388Z,22.90
2022-11-20T10:09:06.517Z,22.93
2022-11-20T10:11:52.612Z,22.10
2022-11-20T10:14:40.678Z,21.20
2022-11-20T10:17:22.733Z,25.23
2022-11-20T10:20:04.196Z,23.20
2022-11-20T10:23:07.086Z,22.43
2022-11-20T10:25:39.903Z,22.40
2022-11-20T10:28:12.172Z,24.03
2022-11-20T10:30:41.968Z,24.80
2022-11-20T10:33:23.438Z,24.77
2022-11-20T10:35:53.761Z,22.73
2022-11-20T10:38:36.468Z,22.03
2022-11-20T10:41:23.441Z,21.83
2022-11-20T10:43:52.377Z,23.03
2022-11-20T10:46:23.351Z,20.67
2022-11-20T10:48:51.236Z,22.13
2022-11-20T10:51:30.690Z,21.17
2022-11-20T10:54:08.785Z,21.37
2022-11-20T10:56:41.533Z,19.30
2022-11-20T10:59:09.479Z,24.70
2022-11-20T11:01:42.546Z,22.27
2022-11-20T11:04:34.233Z,21.90
2022-11-20T11:07:12.446Z,23.10
2022-11-20T11:09:46.415Z,23.73
2022-11-20T11:12:13.824Z,22.20
2022-11-20T11:14:45.001Z,22.90
2022-11-20T11:17:31.381Z,23.83
2022-11-20T11:20:17.156Z,24.43
2022-11-20T11:22:46.162Z,24.80
2022-11-20T11:25:21.007Z,23.40
2022-11-20T11:27:48.988Z,25.40
2022-11-20T11:30:18.277Z,23.03
2022-11-20T11:32:46.175Z,26.43
2022-11-20T11:35:28.082Z,24.77
2022-11-20T11:37:58.010Z,23.57
2022-11-20T11:40:27.915Z,24.77
2022-11-20T11:42:59.127Z,21.70
2022-11-20T11:45:26.380Z,24.07
2022-11-20T11:47:56.488Z,23.80
2022-11-20T11:50:27.356Z,23.70
2022-11-20T11:53:16.244Z,22.80
2022-11-20T11:55:48.668Z,25.07
2022-11-20T11:58:24.552Z,24.23
2022-11-20T12:01:10.632Z,20.80
2022-11-20T12:03:42.629Z,25.30
2022-11-20T12:06:14.429Z,22.77
2022-11-20T12:08:52.136Z,20.73
2022-11-20T12:11:34.639Z,20.73
2022-11-20T12:14:05.273Z,22.10
2022-11-20T12:16:36.984Z,21.20
2022-11-20T12:19:08.610Z,21.00
2022-11-20T12:21:44.808Z,20.57
2022-11-20T12:24:21.586Z,20.67
2022-11-20T12:26:51.831Z,21.90
2022-11-20T12:29:33.008Z,21.53
2022-11-20T12:32:08.707Z,20.20
2022-11-20T12:34:54.759Z,20.17
2022-11-20T12:37:30.300Z,18.87
2022-11-20T12:40:01.740Z,20.53
2022-11-20T12:43:03.128Z,19.70
2022-11-20T12:45:36.277Z,18.97
2022-11-20T12:48:06.300Z,18.53
2022-11-20T12:51:00.674Z,19.70
2022-11-20T12:53:30.037Z,21.27
2022-11-20T12:56:03.545Z,21.30
2022-11-20T12:58:33.535Z,19.93
2022-11-20T13:01:41.488Z,21.17
2022-11-20T13:04:29.928Z,22.60
2022-11-20T13:06:58.650Z,20.30
2022-11-20T13:09:26.092Z,23.20
2022-11-20T13:11:59.238Z,21.37
2022-11-20T13:14:35.634Z,21.10
2022-11-20T13:17:15.003Z,22.07
2022-11-20T13:19:42.526Z,20.57
2022-11-20T13:22:10.307Z,19.37
2022-11-20T13:24:37.570Z,19.53
2022-11-20T13:27:14.078Z,19.63
2022-11-20T13:29:44.153Z,17.50
2022-11-20T13:32:21.889Z,19.07
2022-11-20T13:34:56.558Z,17.47
2022-11-20T13:37:31.433Z,18.37
2022-11-20T13:40:13.740Z,17.90
2022-11-20T13:42:43.977Z,15.80
2022-11-20T13:45:13.615Z,17.17
2022-11-20T13:47:48.734Z,17.50
2022-11-20T13:50:16.184Z,18.20
2022-11-20T13:52:49.454Z,17.80
2022-11-20T13:55:28.359Z,17.00
2022-11-20T13:58:01.054Z,16.73
2022-11-20T14:00:28.582Z,16.93
2022-11-20T14:03:08.023Z,17.13
2022-11-20T14:05:40.479Z,19.00
2022-11-20T14:08:12.904Z,19.07
2022-11-20T14:10:40.440Z,18.73
2022-11-20T14:13:20.663Z,17.27
2022-11-20T14:15:49.418Z,19.07
2022-11-20T14:18:21.179Z,17.23
2022-11-20T14:20:48.592Z,19.30
2022-11-20T14:23:29.524Z,18.83
2022-11-20T14:25:57.390Z,17.67
2022-11-20T14:28:28.535Z,17.73
2022-11-20T14:30:56.511Z,16.43
2022-11-20T14:33:25.829Z,17.50
2022-11-20T14:35:57.584Z,16.50
2022-11-20T14:38:29.775Z,17.03
2022-11-20T14:41:07.472Z,16.30
2022-11-20T14:43:38.514Z,18.73
2022-11-20T14:46:09.957Z,17.23
2022-11-20T14:48:40.611Z,15.97
2022-11-20T14:51:10.615Z,16.43
2022-11-20T14:53:37.993Z,16.50
2022-11-20T14:56:05.263Z,17.70
2022-11-20T14:58:34.306Z,15.80
2022-11-20T15:01:03.474Z,16.77
2022-11-20T15:03:34.924Z,16.40
2022-11-20T15:06:02.505Z,17.47
2022-11-20T15:08:29.714Z,17.10
2022-11-20T15:10:57.105Z,17.50
2022-11-20T15:13:24.267Z,16.93
2022-11-20T15:15:53.838Z,16.33
2022-11-20T15:18:33.726Z,15.13
2022-11-20T15:21:05.221Z,17.13
2022-11-20T15:23:32.675Z,17.37
2022-11-20T15:25:59.970Z,17.13
2022-11-20T15:28:35.298Z,17.13
2022-11-20T15:31:04.922Z,16.30
2022-11-20T15:33:32.429Z,17.80
2022-11-20T15:35:59.717Z,17.13
2022-11-20T15:38:26.882Z,16.90
2022-11-20T15:40:54.040Z,16.80
2022-11-20T15:43:21.215Z,18.20
2022-11-20T15:45:53.458Z,17.97
2022-11-20T15:48:27.682Z,17.70
2022-11-20T15:51:16.255Z,18.20
2022-11-20T15:53:43.501Z,17.27
2022-11-20T15:56:12.665Z,20.30
2022-11-20T15:58:39.992Z,19.80
2022-11-20T16:01:11.261Z,17.10
2022-11-20T16:03:38.426Z,16.87
2022-11-20T16:06:05.709Z,18.27
2022-11-20T16:08:32.878Z,18.80
2022-11-20T16:11:00.029Z,16.80
2022-11-20T16:13:46.221Z,16.23
2022-11-20T16:16:20.496Z,16.03
2022-11-20T16:18:47.740Z,17.37
2022-11-20T16:21:16.227Z,16.43
2022-11-20T16:23:43.472Z,16.90
2022-11-20T16:26:11.879Z,20.83
2022-11-20T16:28:39.039Z,18.03
2022-11-20T16:31:16.607Z,17.97
2022-11-20T16:33:44.176Z,16.60
2022-11-20T16:36:12.260Z,19.50
2022-11-20T16:38:39.525Z,19.63
2022-11-20T16:41:14.133Z,20.27
2022-11-20T16:43:49.105Z,15.63
2022-11-20T16:46:22.002Z,18.03
2022-11-20T16:48:56.337Z,17.93
2022-11-20T16:51:24.218Z,16.57
2022-11-20T16:53:51.937Z,16.63
2022-11-20T16:56:19.999Z,17.53
2022-11-20T16:58:47.954Z,20.10
2022-11-20T17:01:16.619Z,15.60
2022-11-20T17:03:45.051Z,16.63
2022-11-20T17:06:19.712Z,14.77
2022-11-20T17:08:47.700Z,16.30
2022-11-20T17:11:17.892Z,15.63
2022-11-20T17:13:45.509Z,16.50
2022-11-20T17:16:15.692Z,19.67
2022-11-20T17:18:43.924Z,16.20
2022-11-20T17:21:12.765Z,19.30
2022-11-20T17:23:42.460Z,16.80
2022-11-20T17:26:17.741Z,17.10
2022-11-20T17:28:45.690Z,16.83
2022-11-20T17:31:15.601Z,17.17
2022-11-20T17:33:44.836Z,17.00
2022-11-20T17:36:13.279Z,16.80
2022-11-20T17:38:42.567Z,15.70
2022-11-20T17:41:13.799Z,16.57
2022-11-20T17:43:45.046Z,15.70
2022-11-20T17:46:18.164Z,16.43
2022-11-20T17:48:45.922Z,17.47
2022-11-20T17:51:14.107Z,17.83
2022-11-20T17:53:42.056Z,19.33
2022-11-20T17:56:28.177Z,16.27
2022-11-20T17:58:55.566Z,15.10
2022-11-20T18:01:23.739Z,15.40
2022-11-20T18:03:51.120Z,14.40
2022-11-20T18:06:22.646Z,17.00
2022-11-20T18:08:50.513Z,15.43
2022-11-20T18:11:17.683Z,17.83
2022-11-20T18:14:04.494Z,15.80
2022-11-20T18:16:33.187Z,17.80
2022-11-20T18:19:01.779Z,19.73
2022-11-20T18:21:29.928Z,17.80
2022-11-20T18:23:57.493Z,16.17
2022-11-20T18:26:25.255Z,18.27
2022-11-20T18:28:52.837Z,20.90
2022-11-20T18:31:20.658Z,15.97
2022-11-20T18:33:48.121Z,17.03
2022-11-20T18:36:18.473Z,17.47
2022-11-20T18:38:47.076Z,12.40
2022-11-20T18:41:34.333Z,12.00
2022-11-20T18:44:20.880Z,10.20
2022-11-20T18:46:48.641Z,9.37
2022-11-20T18:49:16.109Z,10.23
2022-11-20T18:51:44.379Z,7.60
2022-11-20T18:54:12.655Z,7.67
2022-11-20T18:56:40.112Z,7.67
2022-11-20T18:59:08.139Z,6.57
2022-11-20T19:01:35.445Z,6.90
2022-11-20T19:04:07.090Z,5.83
2022-11-20T19:06:35.471Z,6.50
2022-11-20T19:09:04.085Z,6.03
2022-11-20T19:11:31.326Z,6.43
2022-11-20T19:13:58.636Z,5.10
2022-11-20T19:16:26.877Z,5.73
2022-11-20T19:18:57.088Z,6.17
2022-11-20T19:21:24.978Z,5.47
2022-11-20T19:23:53.491Z,5.20
2022-11-20T19:26:21.569Z,5.17
2022-11-20T19:28:50.226Z,5.27
2022-11-20T19:31:24.296Z,5.53
2022-11-20T19:33:59.083Z,5.30
2022-11-20T19:36:28.878Z,5.40
2022-11-20T19:38:57.564Z,5.97
2022-11-20T19:41:28.815Z,5.10
2022-11-20T19:43:57.518Z,5.97
2022-11-20T19:46:25.342Z,6.70
2022-11-20T19:48:52.654Z,6.37
2022-11-20T19:51:21.210Z,5.90
2022-11-20T19:53:48.672Z,5.97
2022-11-20T19:56:15.967Z,5.80
2022-11-20T19:58:43.178Z,6.60
2022-11-20T20:01:14.507Z,6.10
2022-11-20T20:03:42.169Z,5.63
2022-11-20T20:06:10.689Z,6.00
2022-11-20T20:08:38.229Z,6.30
2022-11-20T20:11:12.811Z,6.03
2022-11-20T20:13:42.060Z,6.23
2022-11-20T20:16:10.826Z,6.83
2022-11-20T20:18:38.388Z,5.80
2022-11-20T20:21:06.444Z,5.37
2022-11-20T20:23:34.272Z,5.80
2022-11-20T20:26:01.718Z,6.60
2022-11-20T20:28:29.031Z,6.53
2022-11-20T20:30:56.297Z,5.53
2022-11-20T20:33:24.329Z,5.30
2022-11-20T20:35:51.484Z,5.03
2022-11-20T20:38:19.174Z,5.13
2022-11-20T20:40:48.679Z,5.40
2022-11-20T20:43:16.424Z,4.50
2022-11-20T20:45:47.826Z,4.20
2022-11-20T20:48:19.263Z,3.87
2022-11-20T20:51:08.440Z,3.57
2022-11-20T20:53:36.494Z,3.50
2022-11-20T20:56:04.121Z,3.50
2022-11-20T20:58:31.744Z,3.50
2022-11-20T21:01:07.153Z,3.13
2022-11-20T21:03:34.845Z,3.57
2022-11-20T21:06:02.381Z,3.23
2022-11-20T21:08:30.582Z,3.93
2022-11-20T21:11:03.023Z,3.60
2022-11-20T21:13:30.658Z,3.23
2022-11-20T21:15:58.337Z,3.97
2022-11-20T21:18:25.945Z,3.43
2022-11-20T21:21:12.262Z,3.77
2022-11-20T21:23:41.794Z,3.20
2022-11-20T21:26:09.710Z,3.53
2022-11-20T21:28:37.536Z,3.30
2022-11-20T21:31:09.774Z,2.90
2022-11-20T21:33:38.139Z,3.00
2022-11-20T21:36:05.696Z,3.10
2022-11-20T21:38:33.432Z,2.63
2022-11-20T21:41:01.161Z,2.90
2022-11-20T21:43:28.499Z,3.10
2022-11-20T21:46:00.844Z,2.90
2022-11-20T21:48:35.250Z,3.07
2022-11-20T21:51:06.803Z,2.73
2022-11-20T21:53:34.730Z,3.40
2022-11-20T21:56:04.044Z,2.40
2022-11-20T21:58:31.679Z,3.07
2022-11-20T22:00:58.998Z,2.30
2022-11-20T22:03:26.237Z,2.70
2022-11-20T22:05:54.860Z,2.80
2022-11-20T22:08:22.005Z,3.03
2022-11-20T22:11:02.669Z,3.67
2022-11-20T22:13:48.426Z,2.50
2022-11-20T22:16:15.703Z,2.90
2022-11-20T22:18:46.730Z,2.77
2022-11-20T22:21:14.291Z,2.70
2022-11-20T22:23:41.684Z,3.30
2022-11-20T22:26:10.410Z,3.23
2022-11-20T22:28:38.029Z,3.70
2022-11-20T22:31:06.255Z,2.90
2022-11-20T22:33:33.813Z,2.70
2022-11-20T22:36:02.106Z,2.60
2022-11-20T22:38:31.428Z,3.17
2022-11-20T22:41:07.604Z,3.10
2022-11-20T22:43:35.115Z,3.20
2022-11-20T22:46:07.120Z,3.60
2022-11-20T22:48:35.065Z,2.90
2022-11-20T22:51:09.461Z,4.07
2022-11-20T22:53:36.944Z,3.40
2022-11-20T22:56:06.580Z,2.93
2022-11-20T22:58:37.119Z,2.80
2022-11-20T23:01:11.623Z,2.70
2022-11-20T23:03:39.957Z,2.57
2022-11-20T23:06:08.973Z,3.43
2022-11-20T23:08:37.009Z,3.00
2022-11-20T23:11:08.402Z,2.63
2022-11-20T23:13:36.141Z,3.97
2022-11-20T23:16:08.514Z,2.83
2022-11-20T23:18:37.364Z,2.80
2022-11-20T23:21:12.476Z,2.67
2022-11-20T23:23:39.917Z,3.30
2022-11-20T23:26:11.824Z,3.13
2022-11-20T23:28:39.938Z,3.37
2022-11-20T23:31:07.858Z,2.90
2022-11-20T23:33:39.580Z,2.63
2022-11-20T23:36:07.243Z,2.70
2022-11-20T23:38:34.898Z,2.60
2022-11-20T23:41:02.796Z,3.17
2022-11-20T23:43:30.195Z,3.00
2022-11-20T23:45:58.340Z,2.80
2022-11-20T23:48:27.116Z,2.50
2022-11-20T23:50:55.292Z,3.10
2022-11-20T23:53:22.798Z,2.63
2022-11-20T23:55:51.171Z,4.77
2022-11-20T23:58:18.544Z,3.37
